ADDS TAF Board (Experimental) INFO Settings
IDs: Format: Expanded Condensed

KMEM - Memphis Intl, TN, US

Issued at 0520 UTC 26 Sep 2016
Updated at 0846 UTC 26 Sep 2016
Time0754Z 26/09Z 26/10Z 26/11Z 26/12Z 26/13Z 26/14Z 26/15Z 26/16Z 26/17Z 26/18Z 26/19Z 26/20Z 26/21Z
Type OBS PRVL PRVL PRVL PRVL
  [TEMP]  
PRVL
  [TEMP]  
PRVL
  [TEMP]  
PRVL PRVL PRVL PRVL PRVL PRVL PRVL
VIS 10 >6 >6 >6 >6 >6 >6 >6 >6 >6 >6 >6 >6 >6
CIG 140 -- -- 50 50
  [25]  
50
  [25]  
50
  [25]  
50 50 50 50 100 100 100
Cover OVC SCT SCT OVC OVC
  [BKN]  
OVC
  [BKN]  
OVC
  [BKN]  
OVC OVC OVC OVC BKN BKN BKN
FltCat VFR VFR VFR VFR VFR
  [MVFR]  
VFR
  [MVFR]  
VFR
  [MVFR]  
VFR VFR VFR VFR VFR VFR VFR
WX -- VCSH VCSH VCSH VCSH
  [--]  
VCSH
  [--]  
VCSH
  [--]  
VCSH VCSH VCSH VCSH -- -- --
WDir VRB 330 330 360 360
[360]
360
[360]
360
[360]
360 360 360 360 10 10 10
WSpd 0 4 4 10 10
  [10]  
10
  [10]  
10
  [10]  
10 10 10 10 10 10 10
WGst -- -- -- -- --
  [--]  
--
  [--]  
--
  [--]  
-- -- -- -- -- -- --
R09/27
XWnd VRB 3 3 10 10 10 10 10 10 10 10 10 10 10
XGst -- -- -- -- 0 0 0 -- -- -- -- -- -- --
HWnd VRB -2 -2 -0 -0 -0 -0 -0 -0 -0 -0 1 1 1
HGst -- -- -- -- 0 0 0 -- -- -- -- -- -- --
R18/36
XWnd VRB -2 -2 0 0 0 0 0 0 0 0 2 2 2
XGst -- -- -- -- 0 0 0 -- -- -- -- -- -- --
HWnd VRB -3 -3 -10 -10 -10 -10 -10 -10 -10 -10 -10 -10 -10
HGst -- -- -- -- 0 0 0 -- -- -- -- -- -- --

Raw TAF
KMEM 260520Z 2606/2706 33004KT P6SM VCSH FEW060 SCT100
  FM261100 36010KT P6SM VCSH SCT025 BKN050 OVC100
  TEMPO 2612/2615 BKN025
  FM261900 01010KT P6SM SCT050 BKN100
  FM270100 02007KT P6SM SKC


Raw METAR
KMEM 260754Z 00000KT 10SM SCT110 BKN140 OVC250 26/20 A2998 RMK AO2 SLP146 T02560200
KMEM 260654Z 30006KT 9SM FEW070 SCT120 24/21 A2999 RMK AO2 SLP149 T02440206
KMEM 260554Z 22004KT 10SM SCT080 BKN095 OVC250 26/20 A3001 RMK AO2 SLP156 T02560200 10317 20250 403670239 58003

METAR Board
Radar Display
Forecast Discussion

TAF Board Legend

Potential Impact
Threat None Slight Moderate High
Visibility (sm) ≥5.1 5.1>X≥3 3>X≥1 <1
Ceiling (100 ft) ≥30.1 30.1>X≥10 10>X≥5 <5
Wind Speed (kt) <10 10≤X<20 20≤X<30 ≥30
Wind Gust (kt) <15 15≤X<25 25≤X<35 ≥35
Weather No Wx Reported VCTS,-TS,-FZRA,SN TS,FZRA +TS,+FZRA,+SN